createdAt,value
2022-11-16T00:01:45.009Z,4.75
2022-11-16T00:04:17.557Z,3.80
2022-11-16T00:06:55.495Z,4.10
2022-11-16T00:09:24.773Z,4.50
2022-11-16T00:11:57.094Z,4.40
2022-11-16T00:14:30.203Z,4.57
2022-11-16T00:17:01.907Z,4.45
2022-11-16T00:19:32.939Z,4.13
2022-11-16T00:22:02.002Z,4.28
2022-11-16T00:24:33.446Z,4.40
2022-11-16T00:27:02.811Z,4.55
2022-11-16T00:29:36.660Z,4.20
2022-11-16T00:32:05.879Z,4.63
2022-11-16T00:34:34.435Z,4.20
2022-11-16T00:37:06.163Z,4.15
2022-11-16T00:39:36.176Z,4.47
2022-11-16T00:42:09.500Z,4.88
2022-11-16T00:44:42.330Z,4.65
2022-11-16T00:47:12.287Z,4.40
2022-11-16T00:49:44.332Z,5.18
2022-11-16T00:52:15.828Z,4.95
2022-11-16T00:54:53.765Z,4.10
2022-11-16T00:57:24.468Z,4.88
2022-11-16T00:59:52.948Z,5.00
2022-11-16T01:02:22.298Z,4.88
2022-11-16T01:04:53.077Z,4.43
2022-11-16T01:07:28.060Z,4.32
2022-11-16T01:09:57.535Z,4.30
2022-11-16T01:12:28.368Z,4.40
2022-11-16T01:14:59.731Z,4.50
2022-11-16T01:17:33.032Z,4.35
2022-11-16T01:20:02.578Z,4.30
2022-11-16T01:22:33.514Z,4.15
2022-11-16T01:25:01.741Z,4.10
2022-11-16T01:27:29.755Z,4.38
2022-11-16T01:29:58.728Z,4.45
2022-11-16T01:32:29.441Z,4.57
2022-11-16T01:34:57.735Z,4.45
2022-11-16T01:37:33.046Z,4.60
2022-11-16T01:40:04.960Z,4.20
2022-11-16T01:42:36.869Z,4.38
2022-11-16T01:45:40.869Z,4.35
2022-11-16T01:48:21.302Z,4.22
2022-11-16T01:50:51.540Z,4.80
2022-11-16T01:53:22.642Z,4.63
2022-11-16T01:55:58.440Z,4.50
2022-11-16T01:58:33.515Z,4.90
2022-11-16T02:01:05.654Z,4.47
2022-11-16T02:03:36.967Z,4.10
2022-11-16T02:06:37.858Z,4.65
2022-11-16T02:09:55.445Z,4.40
2022-11-16T02:12:48.775Z,4.10
2022-11-16T02:15:36.575Z,3.88
2022-11-16T02:18:23.377Z,4.80
2022-11-16T02:21:02.595Z,4.20
2022-11-16T02:23:50.044Z,4.13
2022-11-16T02:26:27.396Z,4.45
2022-11-16T02:29:20.728Z,4.50
2022-11-16T02:32:09.472Z,4.40
2022-11-16T02:35:00.322Z,4.40
2022-11-16T02:37:41.833Z,4.15
2022-11-16T02:40:18.064Z,4.25
2022-11-16T02:43:00.430Z,4.75
2022-11-16T02:45:39.826Z,4.40
2022-11-16T02:48:31.870Z,4.45
2022-11-16T02:51:01.420Z,4.40
2022-11-16T02:53:40.181Z,4.15
2022-11-16T02:56:16.186Z,4.10
2022-11-16T02:58:47.574Z,4.03
2022-11-16T03:01:34.966Z,4.03
2022-11-16T03:04:43.630Z,4.22
2022-11-16T03:07:16.595Z,4.25
2022-11-16T03:09:49.567Z,4.40
2022-11-16T03:12:27.043Z,4.13
2022-11-16T03:15:05.874Z,3.85
2022-11-16T03:17:44.747Z,4.10
2022-11-16T03:20:38.705Z,4.20
2022-11-16T03:23:11.125Z,3.97
2022-11-16T03:25:57.792Z,4.32
2022-11-16T03:28:36.102Z,3.90
2022-11-16T03:31:30.589Z,4.40
2022-11-16T03:34:10.986Z,4.20
2022-11-16T03:36:48.325Z,3.63
2022-11-16T03:39:24.048Z,4.28
2022-11-16T03:42:02.706Z,4.43
2022-11-16T03:44:43.144Z,4.15
2022-11-16T03:47:16.671Z,4.13
2022-11-16T03:49:50.718Z,4.47
2022-11-16T03:52:20.754Z,4.18
2022-11-16T03:54:49.400Z,4.30
2022-11-16T03:57:21.639Z,4.35
2022-11-16T03:59:49.715Z,4.20
2022-11-16T04:02:20.429Z,4.40
2022-11-16T04:05:07.521Z,4.00
2022-11-16T04:07:55.824Z,3.75
2022-11-16T04:10:44.159Z,4.07
2022-11-16T04:13:35.730Z,4.40
2022-11-16T04:16:24.452Z,3.90
2022-11-16T04:19:10.844Z,4.43
2022-11-16T04:22:16.003Z,4.05
2022-11-16T04:25:02.961Z,3.72
2022-11-16T04:27:52.076Z,3.65
2022-11-16T04:30:28.129Z,4.40
2022-11-16T04:33:18.380Z,4.15
2022-11-16T04:36:07.349Z,4.00
2022-11-16T04:38:41.031Z,4.20
2022-11-16T04:41:35.147Z,3.95
2022-11-16T04:44:07.602Z,3.97
2022-11-16T04:46:57.147Z,3.88
2022-11-16T04:49:27.753Z,4.00
2022-11-16T04:51:56.203Z,4.15
2022-11-16T04:54:29.839Z,4.25
2022-11-16T04:56:58.928Z,3.97
2022-11-16T04:59:31.210Z,4.43
2022-11-16T05:02:11.745Z,4.10
2022-11-16T05:04:48.563Z,3.88
2022-11-16T05:07:15.470Z,4.63
2022-11-16T05:09:51.547Z,3.97
2022-11-16T05:12:36.706Z,3.85
2022-11-16T05:15:10.864Z,4.13
2022-11-16T05:17:43.866Z,3.60
2022-11-16T05:20:36.409Z,3.90
2022-11-16T05:23:04.837Z,3.80
2022-11-16T05:25:36.923Z,3.80
2022-11-16T05:28:04.618Z,3.50
2022-11-16T05:30:33.155Z,3.55
2022-11-16T05:33:04.889Z,4.18
2022-11-16T05:35:39.592Z,4.18
2022-11-16T05:38:09.281Z,4.43
2022-11-16T05:40:40.353Z,4.15
2022-11-16T05:43:10.416Z,4.03
2022-11-16T05:45:36.461Z,4.18
2022-11-16T05:48:07.918Z,3.80
2022-11-16T05:50:42.814Z,4.30
2022-11-16T05:53:22.397Z,3.90
2022-11-16T05:55:52.822Z,3.83
2022-11-16T05:58:22.600Z,3.88
2022-11-16T06:00:53.877Z,3.65
2022-11-16T06:03:32.948Z,4.38
2022-11-16T06:06:06.516Z,4.40
2022-11-16T06:08:37.038Z,4.80
2022-11-16T06:11:10.253Z,6.78
2022-11-16T06:13:39.576Z,5.85
2022-11-16T06:16:13.933Z,5.88
2022-11-16T06:18:47.732Z,8.45
2022-11-16T06:21:20.398Z,7.65
2022-11-16T06:23:52.969Z,7.25
2022-11-16T06:26:22.994Z,9.25
2022-11-16T06:28:50.833Z,7.60
2022-11-16T06:31:25.347Z,8.18
2022-11-16T06:33:54.101Z,8.18
2022-11-16T06:36:22.830Z,8.57
2022-11-16T06:38:48.954Z,8.27
2022-11-16T06:41:18.653Z,9.32
2022-11-16T06:43:50.421Z,10.30
2022-11-16T06:46:27.429Z,9.27
2022-11-16T06:48:59.849Z,12.38
2022-11-16T06:51:46.783Z,10.63
2022-11-16T06:54:20.317Z,11.35
2022-11-16T06:56:49.478Z,9.85
2022-11-16T06:59:22.566Z,11.73
2022-11-16T07:01:54.409Z,10.60
2022-11-16T07:04:27.870Z,10.88
2022-11-16T07:07:01.141Z,11.02
2022-11-16T07:09:36.264Z,12.40
2022-11-16T07:12:10.506Z,10.82
2022-11-16T07:14:37.069Z,11.23
2022-11-16T07:17:09.317Z,10.88
2022-11-16T07:19:39.533Z,9.95
2022-11-16T07:22:13.068Z,11.43
2022-11-16T07:24:45.257Z,11.25
2022-11-16T07:27:17.125Z,11.75
2022-11-16T07:29:48.172Z,11.23
2022-11-16T07:32:14.277Z,11.50
2022-11-16T07:34:44.329Z,11.57
2022-11-16T07:37:15.853Z,12.93
2022-11-16T07:39:47.168Z,12.00
2022-11-16T07:42:18.313Z,11.80
2022-11-16T07:44:50.490Z,12.30
2022-11-16T07:47:23.387Z,11.43
2022-11-16T07:49:53.970Z,12.07
2022-11-16T07:52:24.160Z,11.10
2022-11-16T07:54:55.825Z,12.95
2022-11-16T07:57:27.914Z,13.65
2022-11-16T07:59:59.757Z,13.80
2022-11-16T08:02:31.045Z,13.60
2022-11-16T08:04:59.043Z,12.45
2022-11-16T08:07:28.162Z,14.25
2022-11-16T08:09:58.066Z,14.38
2022-11-16T08:12:29.534Z,13.98
2022-11-16T08:15:01.131Z,13.60
2022-11-16T08:17:31.359Z,14.23
2022-11-16T08:20:04.121Z,12.85
2022-11-16T08:22:35.037Z,12.85
2022-11-16T08:25:09.041Z,11.85
2022-11-16T08:27:39.840Z,11.13
2022-11-16T08:30:10.924Z,11.48
2022-11-16T08:32:44.249Z,13.85
2022-11-16T08:35:15.428Z,13.18
2022-11-16T08:37:48.414Z,13.45
2022-11-16T08:40:17.540Z,14.10
2022-11-16T08:42:48.527Z,14.27
2022-11-16T08:45:22.150Z,14.13
2022-11-16T08:47:48.209Z,13.50
2022-11-16T08:50:17.956Z,13.18
2022-11-16T08:52:48.365Z,13.25
2022-11-16T08:55:16.609Z,13.98
2022-11-16T08:57:42.752Z,13.65
2022-11-16T09:00:23.271Z,14.07
2022-11-16T09:02:52.377Z,13.82
2022-11-16T09:05:26.912Z,14.05
2022-11-16T09:07:57.478Z,14.05
2022-11-16T09:10:27.837Z,14.35
2022-11-16T09:12:59.445Z,14.43
2022-11-16T09:15:35.183Z,14.88
2022-11-16T09:18:05.767Z,14.30
2022-11-16T09:20:39.046Z,14.30
2022-11-16T09:23:10.746Z,13.45
2022-11-16T09:25:40.868Z,14.65
2022-11-16T09:28:07.883Z,14.73
2022-11-16T09:30:40.242Z,15.32
2022-11-16T09:33:11.395Z,14.63
2022-11-16T09:35:39.620Z,13.90
2022-11-16T09:38:19.757Z,13.48
2022-11-16T09:41:02.291Z,13.52
2022-11-16T09:43:52.055Z,14.77
2022-11-16T09:46:37.955Z,13.50
2022-11-16T09:49:24.689Z,13.77
2022-11-16T09:52:03.094Z,14.20
2022-11-16T09:54:34.811Z,13.85
2022-11-16T09:57:12.456Z,14.48
2022-11-16T09:59:52.175Z,14.45
2022-11-16T10:02:23.445Z,14.07
2022-11-16T10:05:16.465Z,13.55
2022-11-16T10:07:56.172Z,13.65
2022-11-16T10:10:50.637Z,13.25
2022-11-16T10:13:38.942Z,14.65
2022-11-16T10:16:23.601Z,13.40
2022-11-16T10:19:22.359Z,13.52
2022-11-16T10:22:17.490Z,14.40
2022-11-16T10:25:07.236Z,12.77
2022-11-16T10:28:15.245Z,13.65
2022-11-16T10:31:08.931Z,11.63
2022-11-16T10:33:39.306Z,12.93
2022-11-16T10:36:20.409Z,12.25
2022-11-16T10:38:55.596Z,13.15
2022-11-16T10:41:39.137Z,12.73
2022-11-16T10:44:34.453Z,12.75
2022-11-16T10:47:32.458Z,13.00
2022-11-16T10:50:05.472Z,12.23
2022-11-16T10:52:44.240Z,12.07
2022-11-16T10:55:32.449Z,11.80
2022-11-16T10:58:06.622Z,12.43
2022-11-16T11:00:43.669Z,11.88
2022-11-16T11:03:19.440Z,11.40
2022-11-16T11:06:08.825Z,11.35
2022-11-16T11:08:42.083Z,10.27
2022-11-16T11:11:57.531Z,10.85
2022-11-16T11:14:23.652Z,11.20
2022-11-16T11:16:53.513Z,10.38
2022-11-16T11:19:32.484Z,9.65
2022-11-16T11:22:03.766Z,10.05
2022-11-16T11:24:49.554Z,9.10
2022-11-16T11:27:28.117Z,9.65
2022-11-16T11:30:01.215Z,9.43
2022-11-16T11:32:40.212Z,8.90
2022-11-16T11:35:25.950Z,9.55
2022-11-16T11:38:08.348Z,8.25
2022-11-16T11:40:39.924Z,8.45
2022-11-16T11:43:27.788Z,8.48
2022-11-16T11:46:14.668Z,8.15
2022-11-16T11:49:03.941Z,8.82
2022-11-16T11:51:52.315Z,7.97
2022-11-16T11:54:43.131Z,8.57
2022-11-16T11:57:26.826Z,7.80
2022-11-16T12:00:00.349Z,8.00
2022-11-16T12:02:32.249Z,8.02
2022-11-16T12:05:26.132Z,8.43
2022-11-16T12:08:24.769Z,7.65
2022-11-16T12:10:57.560Z,7.45
2022-11-16T12:13:50.893Z,7.90
2022-11-16T12:16:28.954Z,7.35
2022-11-16T12:19:22.507Z,7.20
2022-11-16T12:22:01.082Z,7.97
2022-11-16T12:25:20.411Z,7.25
2022-11-16T12:28:18.269Z,7.40
2022-11-16T12:30:58.056Z,7.38
2022-11-16T12:33:48.265Z,7.43
2022-11-16T12:36:53.692Z,6.43
2022-11-16T12:39:37.142Z,7.45
2022-11-16T12:42:27.072Z,7.53
2022-11-16T12:45:29.013Z,7.70
2022-11-16T12:48:25.982Z,7.18
2022-11-16T12:51:31.600Z,6.63
2022-11-16T12:54:23.517Z,6.60
2022-11-16T12:57:15.728Z,6.72
2022-11-16T13:00:03.516Z,7.07
2022-11-16T13:02:44.647Z,6.97
2022-11-16T13:05:39.849Z,6.40
2022-11-16T13:08:32.502Z,6.70
2022-11-16T13:11:18.541Z,5.80
2022-11-16T13:14:05.797Z,6.05
2022-11-16T13:16:37.307Z,6.85
2022-11-16T13:19:08.522Z,5.80
2022-11-16T13:22:03.797Z,6.45
2022-11-16T13:25:08.981Z,6.35
2022-11-16T13:27:37.129Z,6.03
2022-11-16T13:30:24.334Z,5.68
2022-11-16T13:33:20.673Z,5.95
2022-11-16T13:35:50.986Z,6.10
2022-11-16T13:38:56.531Z,6.05
2022-11-16T13:41:41.671Z,5.75
2022-11-16T13:44:23.701Z,6.10
2022-11-16T13:47:06.385Z,6.25
2022-11-16T13:50:04.902Z,5.05
2022-11-16T13:55:46.853Z,6.05
2022-11-16T13:58:21.860Z,5.78
2022-11-16T14:01:07.104Z,5.70
2022-11-16T14:03:40.093Z,5.78
2022-11-16T14:06:31.040Z,5.82
2022-11-16T14:09:01.526Z,5.32
2022-11-16T14:11:40.295Z,6.22
2022-11-16T14:14:15.671Z,5.40
2022-11-16T14:16:51.953Z,5.22
2022-11-16T14:19:46.624Z,6.05
2022-11-16T14:22:55.355Z,5.88
2022-11-16T14:26:09.506Z,5.32
2022-11-16T14:28:59.419Z,5.60
2022-11-16T14:31:46.782Z,5.80
2022-11-16T14:34:47.079Z,5.32
2022-11-16T14:37:27.397Z,5.70
2022-11-16T14:40:13.710Z,5.90
2022-11-16T14:43:16.847Z,6.32
2022-11-16T14:46:02.589Z,5.55
2022-11-16T14:48:33.821Z,5.40
2022-11-16T14:51:12.969Z,5.43
2022-11-16T14:53:54.955Z,5.25
2022-11-16T14:56:26.005Z,5.63
2022-11-16T14:59:00.632Z,5.63
2022-11-16T15:01:38.530Z,5.97
2022-11-16T15:04:13.811Z,5.85
2022-11-16T15:07:07.409Z,4.97
2022-11-16T15:09:54.530Z,5.55
2022-11-16T15:12:40.816Z,5.07
2022-11-16T15:15:07.217Z,4.85
2022-11-16T15:17:35.334Z,4.78
2022-11-16T15:20:25.110Z,5.32
2022-11-16T15:23:03.079Z,4.68
2022-11-16T15:25:42.159Z,5.30
2022-11-16T15:28:35.920Z,5.25
2022-11-16T15:31:15.002Z,4.63
2022-11-16T15:33:43.258Z,4.78
2022-11-16T15:36:34.796Z,4.75
2022-11-16T15:39:03.286Z,4.90
2022-11-16T15:41:35.505Z,4.85
2022-11-16T15:44:15.513Z,4.97
2022-11-16T15:46:50.816Z,4.47
2022-11-16T15:49:37.477Z,4.43
2022-11-16T15:52:04.966Z,4.55
2022-11-16T15:54:57.555Z,4.70
2022-11-16T15:57:26.590Z,4.47
2022-11-16T15:59:58.906Z,4.63
2022-11-16T16:02:36.377Z,4.57
2022-11-16T16:05:07.681Z,4.80
2022-11-16T16:07:39.184Z,4.32
2022-11-16T16:10:31.753Z,4.15
2022-11-16T16:13:26.594Z,4.40
2022-11-16T16:16:22.799Z,4.18
2022-11-16T16:19:01.612Z,4.45
2022-11-16T16:21:45.295Z,4.03
2022-11-16T16:24:42.477Z,3.80
2022-11-16T16:27:27.168Z,3.88
2022-11-16T16:30:03.678Z,3.88
2022-11-16T16:32:38.510Z,4.07
2022-11-16T16:35:20.452Z,3.67
2022-11-16T16:38:04.242Z,3.78
2022-11-16T16:40:35.770Z,3.50
2022-11-16T16:43:08.077Z,3.65
2022-11-16T16:45:46.393Z,3.65
2022-11-16T16:48:16.940Z,3.92
2022-11-16T16:50:49.371Z,3.45
2022-11-16T16:53:23.248Z,3.40
2022-11-16T16:55:59.024Z,3.40
2022-11-16T16:58:28.964Z,3.58
2022-11-16T17:01:02.857Z,3.72
2022-11-16T17:03:35.215Z,3.70
2022-11-16T17:06:08.404Z,3.42
2022-11-16T17:08:41.131Z,3.80
2022-11-16T17:11:16.801Z,3.92
2022-11-16T17:13:52.819Z,3.40
2022-11-16T17:16:28.784Z,3.80
2022-11-16T17:19:05.211Z,3.25
2022-11-16T17:21:38.286Z,3.10
2022-11-16T17:24:05.323Z,3.20
2022-11-16T17:26:36.688Z,3.40
2022-11-16T17:29:04.233Z,3.13
2022-11-16T17:31:30.373Z,3.63
2022-11-16T17:34:03.903Z,3.40
2022-11-16T17:36:37.698Z,3.47
2022-11-16T17:39:11.578Z,3.40
2022-11-16T17:41:47.031Z,3.60
2022-11-16T17:44:22.465Z,3.03
2022-11-16T17:46:50.695Z,3.58
2022-11-16T17:49:22.254Z,3.22
2022-11-16T17:51:49.924Z,3.03
2022-11-16T17:54:21.621Z,3.05
2022-11-16T17:56:55.765Z,3.13
2022-11-16T17:59:32.477Z,3.00
2022-11-16T18:02:03.085Z,3.70
2022-11-16T18:04:34.541Z,3.40
2022-11-16T18:07:02.456Z,3.67
2022-11-16T18:09:31.996Z,3.35
2022-11-16T18:12:03.874Z,3.55
2022-11-16T18:14:30.182Z,3.22
2022-11-16T18:16:58.805Z,3.70
2022-11-16T18:19:28.915Z,3.17
2022-11-16T18:22:04.058Z,3.53
2022-11-16T18:24:34.996Z,3.60
2022-11-16T18:27:33.961Z,3.58
2022-11-16T18:30:07.713Z,3.58
2022-11-16T18:32:41.240Z,3.55
2022-11-16T18:35:23.516Z,3.30
2022-11-16T18:37:55.178Z,3.17
2022-11-16T18:40:25.273Z,3.38
2022-11-16T18:42:58.658Z,3.50
2022-11-16T18:45:29.076Z,3.35
2022-11-16T18:48:01.678Z,3.38
2022-11-16T18:50:33.030Z,3.10
2022-11-16T18:53:05.015Z,3.53
2022-11-16T18:55:35.395Z,3.67
2022-11-16T18:58:22.864Z,3.25
2022-11-16T19:01:03.683Z,2.88
2022-11-16T19:03:43.605Z,3.38
2022-11-16T19:06:16.414Z,3.38
2022-11-16T19:08:55.550Z,3.17
2022-11-16T19:11:27.709Z,2.97
2022-11-16T19:14:02.239Z,3.35
2022-11-16T19:16:45.225Z,3.30
2022-11-16T19:19:21.020Z,3.10
2022-11-16T19:21:48.817Z,3.40
2022-11-16T19:24:17.248Z,3.38
2022-11-16T19:26:48.838Z,3.20
2022-11-16T19:29:19.479Z,2.92
2022-11-16T19:31:51.125Z,3.08
2022-11-16T19:34:22.564Z,3.13
2022-11-16T19:36:56.645Z,2.83
2022-11-16T19:39:32.683Z,3.13
2022-11-16T19:42:11.688Z,3.03
2022-11-16T19:44:43.270Z,3.08
2022-11-16T19:47:14.729Z,2.80
2022-11-16T19:49:41.478Z,2.92
2022-11-16T19:52:17.842Z,2.70
2022-11-16T19:54:49.250Z,3.05
2022-11-16T19:57:24.477Z,2.75
2022-11-16T19:59:53.269Z,2.92
2022-11-16T20:02:25.291Z,3.20
2022-11-16T20:04:56.843Z,3.33
2022-11-16T20:07:28.149Z,3.30
2022-11-16T20:09:59.088Z,3.17
2022-11-16T20:12:38.817Z,3.10
2022-11-16T20:15:10.229Z,3.05
2022-11-16T20:17:41.438Z,3.28
2022-11-16T20:20:17.250Z,2.90
2022-11-16T20:22:59.271Z,3.50
2022-11-16T20:25:36.299Z,3.08
2022-11-16T20:28:11.695Z,2.58
2022-11-16T20:30:50.200Z,3.30
2022-11-16T20:33:20.765Z,2.97
2022-11-16T20:35:58.985Z,3.00
2022-11-16T20:38:32.692Z,3.10
2022-11-16T20:41:22.853Z,3.15
2022-11-16T20:43:58.697Z,3.17
2022-11-16T20:46:31.289Z,3.22
2022-11-16T20:49:04.050Z,2.70
2022-11-16T20:51:34.001Z,3.10
2022-11-16T20:54:07.905Z,3.10
2022-11-16T20:57:03.424Z,2.97
2022-11-16T20:59:33.496Z,2.90
2022-11-16T21:02:07.173Z,2.90
2022-11-16T21:04:36.684Z,2.85
2022-11-16T21:07:06.920Z,2.67
2022-11-16T21:10:05.644Z,2.78
2022-11-16T21:12:59.756Z,2.50
2022-11-16T21:15:47.275Z,2.70
2022-11-16T21:18:20.550Z,2.65
2022-11-16T21:20:46.868Z,2.67
2022-11-16T21:23:17.994Z,2.83
2022-11-16T21:25:48.887Z,2.70
2022-11-16T21:28:25.780Z,2.70
2022-11-16T21:31:18.905Z,2.83
2022-11-16T21:33:50.255Z,3.35
2022-11-16T21:36:29.759Z,2.72
2022-11-16T21:39:08.705Z,2.78
2022-11-16T21:41:45.133Z,3.00
2022-11-16T21:44:14.894Z,2.60
2022-11-16T21:46:50.036Z,2.83
2022-11-16T21:49:23.450Z,2.65
2022-11-16T21:51:58.500Z,2.75
2022-11-16T21:54:47.988Z,2.97
2022-11-16T21:57:22.597Z,2.95
2022-11-16T22:00:00.888Z,2.63
2022-11-16T22:02:34.715Z,2.53
2022-11-16T22:05:24.484Z,2.67
2022-11-16T22:07:53.599Z,2.75
2022-11-16T22:10:24.523Z,2.72
2022-11-16T22:12:59.974Z,2.72
2022-11-16T22:15:31.058Z,2.47
2022-11-16T22:18:01.020Z,2.55
2022-11-16T22:20:41.593Z,2.60
2022-11-16T22:23:12.836Z,2.50
2022-11-16T22:25:44.276Z,2.60
2022-11-16T22:28:21.052Z,2.67
2022-11-16T22:30:53.734Z,3.22
2022-11-16T22:33:27.350Z,2.80
2022-11-16T22:35:56.198Z,3.03
2022-11-16T22:38:30.031Z,2.85
2022-11-16T22:41:11.411Z,2.75
2022-11-16T22:43:48.004Z,2.60
2022-11-16T22:46:38.481Z,2.80
2022-11-16T22:49:08.184Z,2.72
2022-11-16T22:51:36.339Z,2.65
2022-11-16T22:54:14.791Z,2.95
2022-11-16T22:56:51.656Z,2.75
2022-11-16T22:59:20.340Z,2.65
2022-11-16T23:01:46.462Z,2.75
2022-11-16T23:04:15.051Z,2.58
2022-11-16T23:07:10.114Z,2.50
2022-11-16T23:09:42.056Z,2.63
2022-11-16T23:12:28.745Z,2.63
2022-11-16T23:15:22.244Z,2.60
2022-11-16T23:17:55.090Z,2.67
2022-11-16T23:20:46.691Z,2.33
2022-11-16T23:23:44.427Z,2.63
2022-11-16T23:26:46.097Z,2.70
2022-11-16T23:29:17.890Z,2.53
2022-11-16T23:31:49.528Z,2.70
2022-11-16T23:34:27.410Z,2.70
2022-11-16T23:37:07.147Z,2.40
2022-11-16T23:39:38.782Z,2.60
2022-11-16T23:42:30.958Z,2.45
2022-11-16T23:45:03.767Z,2.20
2022-11-16T23:47:42.127Z,2.70
2022-11-16T23:50:13.778Z,2.38
2022-11-16T23:52:39.838Z,2.55
2022-11-16T23:55:12.479Z,2.53
2022-11-16T23:57:46.880Z,2.33
